Flight Track Log - Related Links

Times and Time Zones

All times are in EDT time to prevent confusion due to time zone crossing. See the SWA2353 flight status page for this flight to view local times or setup timezone preferences in your user account.

Time Position Orientation Groundspeed Altitude Reporting Facility
EDT Latitude Longitude Course Direction KTS MPH feet Rate Location/Type
Sun 11:02:23 PM 38.8133 -90.3869 37° Northeast 255 293 4,200  Level Kansas City Center
Sun 11:03:24 PM 38.8175 -90.3075 86° East 234 269 6,700 2,852 Climbing Kansas City Center
Sun 11:04:25 PM 38.8139 -90.2042 93° East 279 321 10,000 3,148 Climbing Kansas City Center
Sun 11:05:26 PM 38.8108 -90.0864 92° East 319 367 13,100 3,246 Climbing Kansas City Center
Sun 11:06:27 PM 38.8067 -89.9569 92° East 356 410 16,600 3,590 Climbing Kansas City Center
Sun 11:07:00 PM 38.8239 -89.5000 83° East  Level Estimated
Sun 11:07:28 PM 38.8014 -89.7922 92° East 378 435 20,400  Level Kansas City Center
Sun 11:08:29 PM 38.7961 -89.6464 93° East 396 456 23,400 2,705 Climbing Kansas City Center
Sun 11:09:30 PM 38.7936 -89.4978 91° East 416 479 25,900 2,361 Climbing Kansas City Center
Sun 11:10:31 PM 38.8128 -89.3478 81° East 426 490 28,200 2,115 Climbing Kansas City Center
Sun 11:11:32 PM 38.8319 -89.1942 81° East 436 502 30,200 1,918 Climbing Kansas City Center
Sun 11:12:33 PM 38.8533 -89.0231 81° East 452 520 32,100 1,967 Climbing Kansas City Center
Sun 11:13:34 PM 38.8747 -88.8814 79° East 455 524 34,200 1,967 Climbing Kansas City Center
Sun 11:14:35 PM 38.8950 -88.7247 81° East 450 518 36,100 1,721 Climbing Kansas City Center
Sun 11:15:36 PM 38.9158 -88.5472 81° East 445 512 37,700 1,230 Climbing Kansas City Center
Sun 11:16:37 PM 38.9472 -88.3939 75° East 440 506 38,600 934 Climbing Kansas City Center
Sun 11:17:38 PM 38.9897 -88.2392 70° East 451 519 39,600 849 Climbing Kansas City Center
Sun 11:18:23 PM 39.0133 -88.1508 71° East 452 520 40,100 629 Climbing Indianapolis Center
Sun 11:19:23 PM 39.0561 -87.9928 71° East 461 531 40,700 446 Climbing Indianapolis Center
Sun 11:20:24 PM 39.1011 -87.8325 70° East 471 542 41,000 148 Climbing Indianapolis Center
Sun 11:21:25 PM 39.1406 -87.6700 73° East 472 543 41,000  Level Indianapolis Center
Sun 11:22:26 PM 39.1625 -87.4872 81° East 474 545 41,000  Level Indianapolis Center
Sun 11:23:26 PM 39.1850 -87.3197 80° East 474 545 41,000  Level Indianapolis Center
Sun 11:24:27 PM 39.2053 -87.1503 81° East 475 547 41,000  Level Indianapolis Center
Sun 11:25:28 PM 39.2258 -86.9817 81° East 474 545 41,000  Level Indianapolis Center
Sun 11:26:28 PM 39.2464 -86.8144 81° East 472 543 41,000  Level Indianapolis Center
Sun 11:27:29 PM 39.2633 -86.6478 82° East 469 540 41,000  Level Indianapolis Center
Sun 11:28:30 PM 39.2761 -86.4811 84° East 467 537 41,000  Level Indianapolis Center
Sun 11:29:30 PM 39.2922 -86.2856 84° East 469 540 41,000  Level Indianapolis Center
Sun 11:30:31 PM 39.3061 -86.1169 84° East 472 543 41,000  Level Indianapolis Center
Sun 11:31:32 PM 39.3194 -85.9478 84° East 475 547 41,000  Level Indianapolis Center
Sun 11:32:32 PM 39.3333 -85.7783 84° East 475 547 41,000  Level Indianapolis Center
Sun 11:33:33 PM 39.3464 -85.6089 84° East 475 547 41,000  Level Indianapolis Center
Sun 11:34:34 PM 39.3603 -85.4411 84° East 471 542 41,000  Level Indianapolis Center
Sun 11:35:34 PM 39.3722 -85.2725 85° East 471 542 41,000  Level Indianapolis Center
Sun 11:36:35 PM 39.3839 -85.1039 85° East 470 541 41,000  Level Indianapolis Center
Sun 11:37:35 PM 39.3967 -84.9336 84° East 474 545 41,000  Level Indianapolis Center
Sun 11:38:36 PM 39.4081 -84.7614 85° East 474 545 41,000  Level Indianapolis Center
Sun 11:39:37 PM 39.4192 -84.5881 85° East 478 550 41,000  Level Indianapolis Center
Sun 11:40:37 PM 39.4333 -84.4172 84° East 477 549 41,000  Level Indianapolis Center
Sun 11:41:38 PM 39.4428 -84.2447 86° East 477 549 41,000  Level Indianapolis Center
Sun 11:42:38 PM 39.4539 -84.0739 85° East 475 547 41,000  Level Indianapolis Center
Sun 11:43:39 PM 39.4644 -83.9044 85° East 472 543 41,000  Level Indianapolis Center
Sun 11:44:39 PM 39.4744 -83.7347 86° East 472 543 41,000  Level Indianapolis Center
Sun 11:45:40 PM 39.4842 -83.5656 86° East 472 543 41,000  Level Indianapolis Center
Sun 11:46:40 PM 39.4939 -83.3972 86° East 471 542 41,000  Level Indianapolis Center
Sun 11:47:41 PM 39.5033 -83.2297 86° East 468 539 41,000  Level Indianapolis Center
Sun 11:48:42 PM 39.5125 -83.0608 86° East 469 540 41,000  Level Indianapolis Center
Sun 11:49:42 PM 39.5219 -82.8928 86° East 468 539 41,000  Level Indianapolis Center
Sun 11:50:43 PM 39.5306 -82.7222 86° East 471 542 41,000  Level Indianapolis Center
Sun 11:51:43 PM 39.5394 -82.5508 86° East 473 544 41,000  Level Indianapolis Center
Sun 11:52:44 PM 39.5478 -82.3781 86° East 477 549 41,000  Level Indianapolis Center
Sun 11:53:44 PM 39.5558 -82.2058 86° East 477 549 41,000  Level Indianapolis Center
Sun 11:54:44 PM 39.5656 -82.0203 86° East 477 549 41,000  Level Indianapolis Center
Sun 11:55:45 PM 39.5733 -81.8461 87° East 480 552 41,000  Level Indianapolis Center
Sun 11:56:45 PM 39.5808 -81.6742 87° East 477 549 41,000  Level Indianapolis Center
Sun 11:57:46 PM 39.5878 -81.5014 87° East 478 550 41,000  Level Indianapolis Center
Sun 11:58:57 PM 39.6000 -81.2942 86° East 476 548 41,000  Level Cleveland Center
Sun 11:59:57 PM 39.6053 -81.1219 88° East 476 548 41,000  Level Cleveland Center
Mon 12:00:47 AM 39.6075 -80.9783 89° East 483 556 41,000  Level Indianapolis Center
Mon 12:01:48 AM 39.6133 -80.8047 87° East 483 556 41,000  Level Indianapolis Center
Mon 12:02:48 AM 39.6122 -80.6289 90° East 487 560 41,000  Level Indianapolis Center
Mon 12:03:48 AM 39.5994 -80.4558 95° East 484 557 41,000  Level Indianapolis Center
Mon 12:04:26 AM 39.5967 -80.3558 92° East 468 539 41,000  Level Washington Center
Mon 12:05:26 AM 39.5825 -80.1825 96° East 479 551 41,000  Level Washington Center
Mon 12:06:26 AM 39.5722 -80.0122 94° East 479 551 41,000  Level Washington Center
Mon 12:07:25 AM 39.5575 -79.8444 96° East 479 551 41,000  Level Washington Center
Mon 12:08:25 AM 39.5444 -79.6742 96° East 479 551 41,000 -446 Level Washington Center
Mon 12:09:26 AM 39.5308 -79.5200 96° East 484 557 40,100 -1,686 Descending Washington Center
Mon 12:10:26 AM 39.5178 -79.3469 96° East 484 557 37,600 -2,898 Descending Washington Center
Mon 12:11:24 AM 39.5006 -79.1525 96° East 490 564 34,400 -3,227 Descending Washington Center
Mon 12:12:25 AM 39.4853 -78.9661 96° East 504 580 31,200 -2,650 Descending Washington Center
Mon 12:13:24 AM 39.4708 -78.8017 96° East 517 595 29,100 -2,100 Descending Washington Center
Mon 12:14:25 AM 39.4531 -78.6019 97° East 512 589 27,000 -2,529 Descending Washington Center
Mon 12:15:25 AM 39.4403 -78.4508 96° East 496 571 24,000 -2,656 Descending Washington Center
Mon 12:16:27 AM 39.4272 -78.2864 96° East 476 548 21,600 -2,331 Descending Washington Center
Mon 12:17:26 AM 39.4117 -78.1381 98° East 444 511 19,300 -2,172 Descending Washington Center
Mon 12:18:23 AM 39.3981 -77.9900 97° East 425 489 17,400 -2,186 Descending Washington Center
Mon 12:19:24 AM 39.3861 -77.8525 96° East 401 461 15,000 -1,190 Descending Washington Center
Mon 12:20:24 AM 39.4011 -77.7161 82° East 387 445 15,000 -1,100 Level Washington Center
Mon 12:21:24 AM 39.3908 -77.5894 96° East 372 428 12,800 -2,182 Descending Washington Center
Mon 12:22:25 AM 39.3742 -77.4656 100° East 353 406 10,600 -1,649 Descending Washington Center
Mon 12:23:35 AM 39.3500 -77.3167 102° East 292 336 9,200 -1,306 Descending Potomac TRACON
Mon 12:24:29 AM 39.3500 -77.2333 90° East 292 336 7,900 -1,389 Descending Potomac TRACON
Mon 12:25:23 AM 39.3333 -77.1500 104° East 288 331 6,700 -1,200 Descending Potomac TRACON
Mon 12:26:29 AM 39.3167 -77.0333 100° East 266 306 5,500 -1,333 Descending Potomac TRACON
Mon 12:27:29 AM 39.3167 -76.9333 90° East 250 288 3,900 -1,143 Descending Potomac TRACON
Mon 12:28:35 AM 39.3000 -76.8500 104° East 206 237 3,100 -667 Descending Potomac TRACON
Mon 12:29:35 AM 39.2833 -76.7833 108° East 181 208 2,500 -550 Descending Potomac TRACON
Mon 12:30:35 AM 39.2667 -76.7500 123° Southeast 155 178 2,000 -600 Descending Potomac TRACON
Mon 12:31:35 AM 39.2333 -76.7167 142° Southeast 121 139 1,300 -700 Descending Potomac TRACON
Mon 12:32:35 AM 39.2000 -76.7000 159° South 120 138 600 -700 Descending Potomac TRACON
Mon 12:34:00 AM 39.1754 -76.6683 142° Southeast  Level Estimated
Mon 12:41:00 AM 39.1754 -76.6683 142° Southeast  Level Estimated
Mon 12:42:00 AM 39.1754 -76.6683 142° Southeast  Level Estimated
Mon 12:43:00 AM 39.1754 -76.6683 142° Southeast  Level Estimated
Mon 12:44:00 AM 39.1754 -76.6683 142° Southeast  Level Estimated
Mon 12:45:00 AM 39.1754 -76.6683 142° Southeast  Level Estimated
Mon 12:46:00 AM 39.1754 -76.6683 142° Southeast  Level Estimated

Login

Don't have an account? Register now (free) for customized features, flight alerts, and more!